Time;durP1;ratioP1;P1;durP2;ratioP2;P2;SDS_P1;SDS_P2;PMS_P1;PMS_P2;Temp;Humidity;BMP_temperature;BMP_pressure;BME280_temperature;BME280_humidity;BME280_pressure;Samples;Min_cycle;Max_cycle;Signal;HPM_P1;HPM_P2
2021/12/08 00:01:17;;;;;;;1.25;0.57;;;;;;;14.27;46.33;99059.91;4958518;29;20535;-58
2021/12/08 00:03:42;;;;;;;;;;;;;;;14.28;44.78;99053.50;4959144;29;20115;-59
2021/12/08 00:06:08;;;;;;;2.10;0.77;;;;;;;14.30;45.14;99058.69;4941850;29;19958;-58
2021/12/08 00:08:34;;;;;;;3.42;0.98;;;;;;;14.29;45.41;99074.00;4958354;29;20039;-58
2021/12/08 00:13:31;;;;;;;1.23;0.60;;;;;;;14.34;46.21;99070.78;4930128;29;20023;-58
2021/12/08 00:15:59;;;;;;;1.88;0.70;;;;;;;14.36;45.78;99069.56;4946324;29;20036;-60
2021/12/08 00:18:27;;;;;;;1.38;0.60;;;;;;;14.35;46.36;99069.75;4947356;29;20118;-60
2021/12/08 00:20:56;;;;;;;1.83;0.80;;;;;;;14.31;46.26;99074.66;4945461;29;20416;-61
2021/12/08 00:23:22;;;;;;;0.70;0.70;;;;;;;14.28;46.55;99069.66;4947740;29;20027;-58
2021/12/08 00:25:48;;;;;;;0.90;0.60;;;;;;;14.27;46.17;99089.53;4930045;29;20401;-58
2021/12/08 00:28:14;;;;;;;1.75;0.80;;;;;;;14.25;45.61;99072.75;4948555;29;20035;-58
2021/12/08 00:30:41;;;;;;;0.40;0.40;;;;;;;14.25;46.72;99075.44;4946308;29;20050;-59
2021/12/08 00:33:08;;;;;;;1.42;0.40;;;;;;;14.23;45.77;99082.91;4928988;29;20036;-58
2021/12/08 00:35:34;;;;;;;1.20;0.40;;;;;;;14.20;46.59;99072.50;4946633;29;20118;-58
2021/12/08 00:38:00;;;;;;;2.35;0.45;;;;;;;14.20;46.44;99077.06;4947948;29;20106;-58
2021/12/08 00:40:27;;;;;;;1.23;0.45;;;;;;;14.20;46.14;99077.91;4946886;29;20028;-58
2021/12/08 00:42:53;;;;;;;0.68;0.43;;;;;;;14.19;45.68;99075.38;4946616;29;20109;-58
2021/12/08 00:45:19;;;;;;;0.30;0.30;;;;;;;14.19;45.71;99078.06;4948034;29;20151;-58
2021/12/08 00:47:45;;;;;;;3.47;0.40;;;;;;;14.20;47.23;99080.59;4929329;29;20378;-59
2021/12/08 00:50:11;;;;;;;1.23;0.60;;;;;;;14.22;45.84;99093.84;4929367;29;20389;-58
2021/12/08 00:52:37;;;;;;;0.30;0.30;;;;;;;14.23;46.33;99084.75;4928827;29;20503;-59
2021/12/08 00:55:05;;;;;;;1.52;0.40;;;;;;;14.26;46.97;99082.50;4930960;29;20039;-58
2021/12/08 00:57:30;;;;;;;0.47;0.45;;;;;;;14.30;47.36;99085.63;4945299;29;20023;-59
2021/12/08 00:59:56;;;;;;;2.80;0.52;;;;;;;14.33;47.34;99087.97;4947491;29;20035;-60
2021/12/08 01:02:21;;;;;;;1.30;0.30;;;;;;;14.36;45.93;99093.78;4945041;29;20024;-60
2021/12/08 01:04:47;;;;;;;0.98;0.70;;;;;;;14.38;46.46;99102.50;4946241;29;20086;-60
2021/12/08 01:07:12;;;;;;;5.65;0.70;;;;;;;14.43;45.75;99116.22;4955034;29;20429;-61
2021/12/08 01:09:37;;;;;;;0.95;0.90;;;;;;;14.45;45.81;99100.72;4956197;29;20069;-60
2021/12/08 01:12:04;;;;;;;1.45;0.38;;;;;;;14.44;45.91;99085.56;4939145;29;20039;-60
2021/12/08 01:14:32;;;;;;;1.45;0.50;;;;;;;14.39;46.76;99082.63;4956486;29;20527;-58
2021/12/08 01:16:58;;;;;;;0.60;0.60;;;;;;;14.42;46.50;99082.25;4956303;29;20019;-57
2021/12/08 01:19:23;;;;;;;0.55;0.28;;;;;;;14.39;47.25;99088.00;4939283;29;20043;-58
2021/12/08 01:21:49;;;;;;;0.30;0.30;;;;;;;14.33;46.39;99080.72;4956112;29;20057;-58
2021/12/08 01:24:14;;;;;;;0.40;0.40;;;;;;;14.41;46.74;99087.81;4923419;29;20031;-57
2021/12/08 01:26:40;;;;;;;0.45;0.35;;;;;;;14.40;46.03;99092.38;4956193;29;20103;-58
2021/12/08 01:29:07;;;;;;;3.80;0.60;;;;;;;14.41;46.80;99099.41;4938505;29;20493;-58
2021/12/08 01:31:32;;;;;;;0.45;0.30;;;;;;;14.41;46.14;99104.81;4956298;29;20488;-58
2021/12/08 01:33:58;;;;;;;1.88;0.47;;;;;;;14.39;47.20;99109.56;4938703;29;20037;-57
2021/12/08 01:36:23;;;;;;;2.40;0.50;;;;;;;14.38;46.91;99109.75;4923190;29;20034;-57
2021/12/08 01:38:49;;;;;;;0.80;0.20;;;;;;;14.38;47.41;99131.28;4955140;29;20026;-57
2021/12/08 01:41:14;;;;;;;0.35;0.22;;;;;;;14.34;47.57;99125.50;4938702;29;20499;-58
2021/12/08 01:45:56;;;;;;;1.08;0.40;;;;;;;14.39;46.38;99139.19;4939150;29;20062;-58
2021/12/08 01:46:29;;;;;;;1.35;0.30;;;;;;;14.39;46.82;99128.41;4956485;29;20031;-58
2021/12/08 01:48:54;;;;;;;2.20;0.25;;;;;;;14.42;46.64;99119.13;4939698;29;20134;-57
2021/12/08 01:51:20;;;;;;;0.57;0.30;;;;;;;14.44;46.33;99120.59;4956620;29;20498;-58
2021/12/08 01:53:48;;;;;;;2.67;0.60;;;;;;;14.47;46.17;99125.59;4956905;29;20035;-58
2021/12/08 01:56:14;;;;;;;0.50;0.28;;;;;;;14.49;46.10;99128.91;4939279;29;20039;-58
2021/12/08 01:58:40;;;;;;;0.43;0.38;;;;;;;14.47;47.65;99133.66;4937585;29;20030;-58
2021/12/08 02:01:08;;;;;;;0.45;0.30;;;;;;;14.49;46.17;99136.97;4937498;29;20032;-58
2021/12/08 02:03:34;;;;;;;1.70;0.50;;;;;;;14.38;47.54;99124.06;4937514;29;20038;-57
2021/12/08 02:06:00;;;;;;;2.28;0.43;;;;;;;14.49;46.35;99153.16;4937299;29;20397;-58
2021/12/08 02:08:26;;;;;;;0.75;0.47;;;;;;;14.49;46.81;99152.31;4937130;29;20032;-58
2021/12/08 02:10:52;;;;;;;1.00;0.40;;;;;;;14.48;46.82;99154.19;4937449;29;20051;-57
2021/12/08 02:13:17;;;;;;;2.10;0.47;;;;;;;14.48;46.89;99162.28;4937702;29;20496;-58
2021/12/08 02:15:43;;;;;;;1.08;0.30;;;;;;;14.48;46.81;99153.38;4937659;29;20028;-58
2021/12/08 02:18:11;;;;;;;1.50;0.70;;;;;;;14.47;46.19;99149.81;4937342;29;20465;-57
2021/12/08 02:20:38;;;;;;;4.05;0.85;;;;;;;14.48;47.45;99161.44;4937037;29;20037;-61
2021/12/08 02:23:04;;;;;;;0.50;0.40;;;;;;;14.48;47.76;99156.91;4919818;29;20106;-58
2021/12/08 02:25:30;;;;;;;0.93;0.50;;;;;;;14.51;48.05;99161.91;4937271;29;20031;-58
2021/12/08 02:27:59;;;;;;;1.55;0.63;;;;;;;14.52;47.42;99163.53;4937005;29;20032;-58
2021/12/08 02:49:13;;;;;;;2.13;0.50;;;;;;;14.61;47.22;99177.72;4941205;29;20045;-58
2021/12/08 02:51:39;;;;;;;4.68;0.73;;;;;;;14.63;46.37;99185.59;4923325;29;20453;-59
2021/12/08 02:54:04;;;;;;;1.63;0.45;;;;;;;14.66;46.94;99179.81;4940777;29;20118;-58
2021/12/08 02:56:30;;;;;;;0.93;0.47;;;;;;;14.56;47.87;99167.53;4940854;29;20063;-59
2021/12/08 02:58:57;;;;;;;2.22;0.63;;;;;;;14.68;47.01;99180.47;4940745;29;20487;-58
2021/12/08 03:01:23;;;;;;;5.10;1.10;;;;;;;14.70;47.21;99189.19;4941056;29;20059;-58
2021/12/08 03:03:49;;;;;;;2.58;0.60;;;;;;;14.67;46.96;99192.25;4923711;29;20039;-59
2021/12/08 03:06:14;;;;;;;1.92;0.60;;;;;;;14.70;47.17;99194.56;4940893;29;20031;-58
2021/12/08 03:08:40;;;;;;;3.20;0.75;;;;;;;14.74;47.50;99203.94;4923378;29;20042;-58
2021/12/08 03:11:06;;;;;;;6.80;0.60;;;;;;;14.71;46.46;99209.72;4940214;29;20051;-58
2021/12/08 03:13:32;;;;;;;4.50;0.85;;;;;;;14.70;47.65;99213.44;4923754;29;20027;-59
2021/12/08 03:15:58;;;;;;;3.30;0.70;;;;;;;14.67;47.58;99203.03;4940053;29;20063;-58
2021/12/08 03:18:31;;;;;;;2.70;0.47;;;;;;;14.69;47.12;99206.38;4923731;29;20059;-58
2021/12/08 03:20:56;;;;;;;2.65;0.65;;;;;;;14.68;46.08;99204.72;4908674;29;20035;-58
2021/12/08 03:23:28;;;;;;;5.15;0.50;;;;;;;14.66;46.71;99198.66;4940598;29;20051;-58
2021/12/08 03:25:56;;;;;;;0.93;0.55;;;;;;;14.65;47.08;99194.31;4940281;29;20044;-58
2021/12/08 03:28:26;;;;;;;5.70;1.10;;;;;;;14.65;47.75;99197.84;4940397;29;20039;-58
2021/12/08 03:31:17;;;;;;;4.80;0.63;;;;;;;14.64;46.47;99203.44;4940237;29;20051;-58
2021/12/08 03:33:37;;;;;;;1.67;0.70;;;;;;;14.65;46.78;99195.16;4925566;29;20063;-58
2021/12/08 03:36:03;;;;;;;3.78;0.60;;;;;;;14.67;46.58;99203.03;4923123;29;20065;-58
2021/12/08 03:38:29;;;;;;;12.00;0.88;;;;;;;14.66;46.98;99190.59;4939357;29;20023;-58
2021/12/08 03:40:57;;;;;;;3.63;0.90;;;;;;;14.70;46.38;99202.66;4940027;29;20377;-58
2021/12/08 03:43:23;;;;;;;10.27;1.00;;;;;;;14.67;47.49;99203.03;4940257;29;20039;-58
2021/12/08 03:45:52;;;;;;;5.32;0.90;;;;;;;14.68;46.20;99207.41;4922937;29;20396;-58
2021/12/08 03:48:23;;;;;;;6.95;1.08;;;;;;;14.68;46.39;99218.19;4939931;29;20082;-59
2021/12/08 03:50:49;;;;;;;4.65;0.80;;;;;;;14.70;47.35;99214.28;4939749;29;20027;-58
2021/12/08 03:53:16;;;;;;;2.58;0.90;;;;;;;14.70;46.47;99229.59;4939406;29;20074;-58
2021/12/08 03:55:43;;;;;;;3.30;0.68;;;;;;;14.69;47.30;99222.53;4939918;29;20039;-59
2021/12/08 03:58:10;;;;;;;5.45;0.90;;;;;;;14.64;46.38;99220.44;4922938;29;20027;-58
2021/12/08 04:00:37;;;;;;;4.88;0.70;;;;;;;14.62;46.80;99221.66;4891421;29;20396;-58
2021/12/08 04:03:04;;;;;;;3.58;0.70;;;;;;;14.64;45.93;99220.44;4939870;29;20118;-58
2021/12/08 04:05:40;;;;;;;10.85;1.27;;;;;;;14.61;45.64;99220.81;4939682;29;20528;-58
2021/12/08 04:08:15;;;;;;;4.88;0.93;;;;;;;14.51;46.61;99210.41;4939224;29;20071;-58
2021/12/08 04:10:42;;;;;;;3.15;0.75;;;;;;;14.25;45.65;99161.63;4919078;29;20052;-58
2021/12/08 04:13:08;;;;;;;3.40;1.13;;;;;;;14.48;46.24;99202.69;4919172;29;20478;-59
2021/12/08 04:15:33;;;;;;;5.07;0.88;;;;;;;14.52;46.67;99212.03;4903222;29;20043;-58
2021/12/08 04:17:59;;;;;;;5.10;1.00;;;;;;;14.53;46.42;99219.09;4920543;29;20516;-58
2021/12/08 04:20:32;;;;;;;2.60;0.80;;;;;;;14.51;46.55;99226.56;4920157;29;20437;-58
2021/12/08 04:22:59;;;;;;;6.28;0.88;;;;;;;14.51;46.98;99229.25;4920256;29;20087;-59
2021/12/08 04:25:28;;;;;;;7.93;1.38;;;;;;;14.50;45.75;99234.81;4918355;29;20071;-58
2021/12/08 04:27:56;;;;;;;2.60;0.65;;;;;;;14.47;45.42;99236.03;4919275;29;20405;-59
2021/12/08 04:30:29;;;;;;;2.78;0.85;;;;;;;14.43;46.51;99250.09;4919075;29;20473;-59
2021/12/08 04:32:54;;;;;;;;;;;;;;;14.41;47.00;99247.59;4904180;29;20087;-58
2021/12/08 04:35:21;;;;;;;5.70;1.00;;;;;;;14.39;46.80;99246.94;4919822;29;19911;-58
2021/12/08 04:37:51;;;;;;;3.60;0.50;;;;;;;14.38;46.82;99241.75;4919951;29;20032;-58
2021/12/08 04:46:03;;;;;;;3.92;0.80;;;;;;;14.26;46.09;99273.72;4919578;29;20474;-58
2021/12/08 04:51:27;;;;;;;1.33;1.20;;;;;;;14.19;46.93;99274.66;4920036;29;20040;-58
2021/12/08 05:04:54;;;;;;;4.82;1.15;;;;;;;14.14;46.65;99277.94;4918783;29;20036;-58
2021/12/08 05:10:16;;;;;;;4.22;0.82;;;;;;;14.09;46.73;99261.53;4925326;29;20062;-59
2021/12/08 05:12:43;;;;;;;8.18;1.25;;;;;;;14.11;45.65;99259.47;4921248;29;20036;-58
2021/12/08 05:15:15;;;;;;;5.47;0.82;;;;;;;14.09;45.73;99253.44;4921747;29;20020;-58
2021/12/08 05:17:45;;;;;;;7.43;1.02;;;;;;;14.08;45.67;99251.75;4937839;29;20024;-58
2021/12/08 05:20:27;;;;;;;5.00;1.60;;;;;;;14.06;46.81;99252.97;4938315;29;20110;-58
2021/12/08 05:22:56;;;;;;;6.30;1.27;;;;;;;14.05;45.44;99249.44;4938171;29;20030;-58
2021/12/08 05:25:24;;;;;;;7.63;1.45;;;;;;;14.02;45.74;99255.22;4938051;29;20034;-58
2021/12/08 05:27:53;;;;;;;9.73;0.88;;;;;;;13.99;46.54;99253.72;4937853;29;20028;-58
2021/12/08 05:30:21;;;;;;;9.52;1.33;;;;;;;13.90;45.35;99248.66;4937521;29;20425;-58
2021/12/08 05:32:48;;;;;;;3.17;0.82;;;;;;;13.97;47.03;99263.88;4937941;29;20058;-58
2021/12/08 05:35:14;;;;;;;3.35;0.73;;;;;;;13.98;46.81;99279.00;4938007;29;20023;-58
2021/12/08 05:37:40;;;;;;;7.18;0.90;;;;;;;13.97;46.90;99260.34;4937952;29;20041;-58
2021/12/08 05:40:11;;;;;;;2.03;0.85;;;;;;;13.91;46.85;99251.16;4920622;29;20480;-58
2021/12/08 05:42:37;;;;;;;4.50;1.02;;;;;;;13.93;46.13;99264.44;4937381;29;20027;-58
2021/12/08 05:45:09;;;;;;;3.90;1.20;;;;;;;13.93;46.55;99264.44;4938040;29;20478;-58
2021/12/08 05:47:35;;;;;;;6.57;1.10;;;;;;;13.91;46.41;99271.84;4937896;29;20019;-58
2021/12/08 05:50:00;;;;;;;9.05;1.83;;;;;;;13.87;45.50;99281.34;4920788;29;20086;-59
2021/12/08 05:52:27;;;;;;;2.88;0.73;;;;;;;13.87;46.23;99286.72;4937540;29;20469;-58
2021/12/08 05:54:52;;;;;;;4.43;0.73;;;;;;;13.85;46.70;99284.22;4937772;29;20400;-58
2021/12/08 05:57:26;;;;;;;6.32;1.27;;;;;;;13.86;45.61;99285.03;4937658;29;20028;-58
2021/12/08 05:59:53;;;;;;;8.85;0.98;;;;;;;13.84;46.79;99293.31;4937783;29;20038;-58
2021/12/08 06:02:25;;;;;;;2.58;0.60;;;;;;;13.87;45.54;99292.13;4937477;29;20031;-58
2021/12/08 06:04:50;;;;;;;4.63;0.80;;;;;;;13.82;45.58;99283.75;4937592;29;20030;-59
2021/12/08 06:07:21;;;;;;;2.45;0.75;;;;;;;13.83;45.44;99296.19;4920430;29;20532;-59
2021/12/08 06:09:47;;;;;;;2.58;0.52;;;;;;;13.80;46.68;99291.19;4937171;29;20054;-58
2021/12/08 06:12:13;;;;;;;3.10;0.88;;;;;;;13.78;45.99;99296.75;4937704;29;20028;-58
2021/12/08 06:14:40;;;;;;;2.78;0.70;;;;;;;13.77;46.12;99307.69;4936746;29;20495;-58
2021/12/08 06:17:12;;;;;;;4.13;0.52;;;;;;;13.77;46.50;99305.00;4936688;29;20099;-59
2021/12/08 06:19:40;;;;;;;3.38;0.77;;;;;;;13.79;45.79;99306.47;4937448;29;20031;-59
2021/12/08 06:22:06;;;;;;;4.47;0.52;;;;;;;13.79;46.42;99314.56;4937872;29;20543;-58
2021/12/08 06:24:32;;;;;;;3.05;0.50;;;;;;;13.78;45.70;99320.13;4920486;29;20032;-58
2021/12/08 06:26:57;;;;;;;8.40;0.95;;;;;;;13.82;45.81;99326.81;4920100;29;20363;-58
2021/12/08 06:29:23;;;;;;;1.95;0.93;;;;;;;13.83;45.12;99323.09;4937037;29;20095;-58
2021/12/08 06:31:52;;;;;;;3.25;0.77;;;;;;;13.82;44.80;99322.25;4936972;29;20031;-59
2021/12/08 06:34:18;;;;;;;4.75;0.75;;;;;;;13.82;44.83;99327.66;4904212;29;20553;-59
2021/12/08 06:36:48;;;;;;;1.45;0.45;;;;;;;13.80;45.83;99327.00;4937153;29;20144;-58
2021/12/08 06:39:19;;;;;;;4.82;0.80;;;;;;;13.77;44.75;99318.47;4936703;29;20043;-59
2021/12/08 06:41:48;;;;;;;1.05;0.77;;;;;;;13.74;45.70;99316.97;4919599;29;20031;-58
2021/12/08 06:44:23;;;;;;;6.30;0.73;;;;;;;13.73;45.99;99319.88;4937130;29;20098;-59
2021/12/08 06:46:50;;;;;;;7.03;0.88;;;;;;;13.71;46.14;99316.50;4949106;28;20059;-59
2021/12/08 06:49:18;;;;;;;5.50;0.80;;;;;;;13.66;45.00;99311.69;4956469;29;20511;-58
2021/12/08 06:51:54;;;;;;;4.60;0.88;;;;;;;13.66;44.64;99329.69;4956096;29;20154;-59
2021/12/08 06:54:28;;;;;;;2.95;0.82;;;;;;;13.63;45.33;99330.06;4939061;29;20035;-58
2021/12/08 06:56:59;;;;;;;5.22;1.30;;;;;;;13.62;45.34;99347.25;4939052;29;20504;-59
2021/12/08 06:59:31;;;;;;;6.10;0.77;;;;;;;13.56;46.24;99348.81;4956104;29;20031;-59
2021/12/08 07:02:07;;;;;;;5.03;1.03;;;;;;;13.59;44.92;99361.06;4955871;29;20027;-58
2021/12/08 07:07:40;;;;;;;4.90;0.95;;;;;;;13.55;45.71;99352.53;4923361;29;20091;-58
2021/12/08 07:10:21;;;;;;;8.05;1.00;;;;;;;13.53;46.25;99359.09;4955502;29;20504;-59
2021/12/08 07:12:50;;;;;;;8.27;0.80;;;;;;;13.50;44.69;99363.00;4955689;29;20073;-58
2021/12/08 07:15:47;;;;;;;9.75;1.25;;;;;;;13.46;45.81;99371.59;4955860;29;20110;-58
2021/12/08 07:18:21;;;;;;;6.55;1.00;;;;;;;13.47;44.83;99365.22;4950638;29;20039;-58
2021/12/08 07:20:51;;;;;;;6.40;0.88;;;;;;;13.46;44.87;99363.53;4955988;29;20177;-58
2021/12/08 07:23:24;;;;;;;2.83;0.50;;;;;;;13.34;45.03;99347.84;4955820;29;20034;-58
2021/12/08 07:25:53;;;;;;;8.35;1.23;;;;;;;13.49;44.77;99384.69;4956044;29;20506;-59
2021/12/08 07:28:20;;;;;;;5.53;0.93;;;;;;;13.47;46.02;99387.56;4941390;29;20031;-61
2021/12/08 07:30:54;;;;;;;4.55;0.85;;;;;;;13.46;44.92;99379.66;4958802;29;20062;-60
2021/12/08 07:33:21;;;;;;;7.05;1.00;;;;;;;13.45;45.35;99375.31;4958904;29;20526;-61
2021/12/08 07:35:49;;;;;;;3.70;0.90;;;;;;;13.40;45.77;99370.47;4958694;29;20045;-59
2021/12/08 07:38:18;;;;;;;5.30;1.00;;;;;;;13.43;44.78;99388.13;4958955;29;20027;-58
2021/12/08 07:40:52;;;;;;;6.13;1.10;;;;;;;13.43;45.50;99392.47;4959358;29;20493;-59
2021/12/08 07:43:20;;;;;;;2.97;1.58;;;;;;;13.45;44.94;99386.09;4958487;29;20034;-59
2021/12/08 07:46:17;;;;;;;4.20;0.77;;;;;;;13.45;45.83;99391.47;4958391;29;20110;-58
2021/12/08 07:48:53;;;;;;;4.07;0.55;;;;;;;13.50;44.74;99389.91;4957378;29;20039;-58
2021/12/08 07:51:25;;;;;;;3.92;0.60;;;;;;;13.47;45.23;99403.72;4958911;29;20031;-58
2021/12/08 07:53:51;;;;;;;2.38;0.80;;;;;;;13.43;45.81;99398.91;4958619;29;20063;-57
2021/12/08 07:56:19;;;;;;;4.18;1.23;;;;;;;13.46;44.84;99409.25;4958473;29;20023;-58
2021/12/08 07:58:52;;;;;;;9.00;1.15;;;;;;;13.45;45.31;99427.28;4958745;29;20024;-58
2021/12/08 08:01:23;;;;;;;2.85;0.80;;;;;;;13.47;44.73;99425.22;4940926;29;20469;-58
2021/12/08 08:03:49;;;;;;;6.88;1.40;;;;;;;13.50;44.63;99430.25;4958052;29;20019;-58
2021/12/08 08:06:18;;;;;;;4.97;0.80;;;;;;;13.53;45.67;99424.50;4958461;29;20098;-58
2021/12/08 08:08:44;;;;;;;2.72;0.90;;;;;;;13.57;45.60;99427.69;4957967;29;20396;-60
2021/12/08 08:11:16;;;;;;;4.25;0.80;;;;;;;13.57;45.28;99416.91;4957514;29;20055;-60
2021/12/08 08:13:43;;;;;;;4.43;0.75;;;;;;;13.60;45.39;99405.75;4957903;29;20031;-57
2021/12/08 08:16:13;;;;;;;10.02;1.65;;;;;;;13.64;44.69;99409.78;4958266;29;20035;-57
2021/12/08 08:18:42;;;;;;;1.98;0.60;;;;;;;13.67;44.38;99409.41;4958459;29;20122;-58
2021/12/08 08:21:12;;;;;;;3.55;0.70;;;;;;;13.70;45.74;99409.88;4958516;29;20030;-57
2021/12/08 08:23:38;;;;;;;5.57;1.20;;;;;;;13.70;44.57;99409.88;4958276;29;20049;-57
2021/12/08 08:26:06;;;;;;;6.55;1.48;;;;;;;13.72;45.01;99417.75;4957568;29;20027;-60
2021/12/08 08:28:32;;;;;;;4.20;1.90;;;;;;;13.70;44.73;99409.88;4957392;29;20023;-60
2021/12/08 08:31:04;;;;;;;8.18;2.22;;;;;;;13.71;44.71;99413.38;4940039;29;20395;-60
2021/12/08 08:33:31;;;;;;;3.63;1.00;;;;;;;13.71;44.71;99413.38;4957787;29;20031;-60
2021/12/08 08:36:07;;;;;;;10.32;1.30;;;;;;;13.70;44.99;99415.25;4957653;29;20027;-60
2021/12/08 08:38:45;;;;;;;9.45;2.17;;;;;;;13.69;44.71;99410.06;4957638;28;20041;-60
2021/12/08 08:41:46;;;;;;;4.35;0.90;;;;;;;13.66;44.66;99405.03;4957619;29;20480;-60
2021/12/08 08:44:27;;;;;;;3.10;1.75;;;;;;;13.65;44.96;99416.84;4940903;29;20126;-60
2021/12/08 08:46:56;;;;;;;5.03;1.02;;;;;;;13.66;45.80;99421.19;4957639;29;20031;-60
2021/12/08 08:49:24;;;;;;;2.13;0.73;;;;;;;13.68;45.63;99432.63;4940582;29;20417;-57
2021/12/08 08:52:00;;;;;;;9.23;1.00;;;;;;;13.74;45.03;99431.84;4957803;29;20035;-57
2021/12/08 08:54:31;;;;;;;5.75;1.17;;;;;;;13.78;44.95;99438.56;4958072;29;20031;-57
2021/12/08 08:57:04;;;;;;;1.83;0.60;;;;;;;13.79;44.79;99434.84;4957897;29;20050;-58
2021/12/08 08:59:33;;;;;;;1.67;0.80;;;;;;;13.80;44.83;99437.34;4957824;29;20386;-58
2021/12/08 09:02:06;;;;;;;1.00;0.55;;;;;;;13.82;45.49;99442.53;4957655;29;20031;-57
2021/12/08 09:04:36;;;;;;;3.25;0.80;;;;;;;13.84;44.70;99440.53;4957685;29;20028;-57
2021/12/08 09:07:07;;;;;;;2.33;0.93;;;;;;;13.82;44.33;99421.00;4957548;29;20030;-57
2021/12/08 09:09:36;;;;;;;3.05;1.05;;;;;;;13.91;45.43;99427.97;4957182;29;20077;-57
2021/12/08 09:12:10;;;;;;;4.70;0.70;;;;;;;13.96;45.35;99430.94;4957325;29;20031;-58
2021/12/08 09:14:52;;;;;;;3.88;0.70;;;;;;;14.01;45.04;99434.75;4957448;29;20055;-57
2021/12/08 09:17:26;;;;;;;4.93;1.23;;;;;;;14.09;43.67;99441.94;4957314;29;20023;-57
2021/12/08 09:20:03;;;;;;;5.10;0.68;;;;;;;14.15;45.00;99435.81;4957266;29;20067;-57
2021/12/08 09:22:35;;;;;;;7.40;0.50;;;;;;;14.17;45.07;99431.06;4957516;29;20027;-57
2021/12/08 09:25:13;;;;;;;9.70;1.08;;;;;;;14.22;44.74;99425.09;4957453;29;20027;-58
2021/12/08 09:27:46;;;;;;;1.67;0.60;;;;;;;14.25;43.52;99424.72;4957223;29;20038;-57
2021/12/08 09:30:18;;;;;;;3.08;0.40;;;;;;;14.29;44.42;99426.03;4957225;29;20035;-58
2021/12/08 09:32:51;;;;;;;2.17;0.70;;;;;;;14.36;44.98;99422.44;4957171;29;20112;-58
2021/12/08 09:35:24;;;;;;;3.53;0.57;;;;;;;14.45;44.73;99415.91;4957231;29;20059;-57
2021/12/08 09:38:00;;;;;;;0.88;0.47;;;;;;;14.50;44.78;99421.56;4957399;29;20424;-58
2021/12/08 09:40:32;;;;;;;7.40;1.10;;;;;;;14.55;44.67;99410.22;4939990;29;20082;-58
2021/12/08 09:43:02;;;;;;;3.50;0.68;;;;;;;14.61;43.18;99406.75;4957366;29;20019;-57
2021/12/08 09:45:33;;;;;;;9.23;0.68;;;;;;;14.68;43.86;99386.13;4939762;29;20039;-57
2021/12/08 09:48:07;;;;;;;3.22;0.70;;;;;;;14.83;43.12;99383.34;4939431;29;20436;-58
2021/12/08 09:50:33;;;;;;;3.55;0.45;;;;;;;14.97;42.91;99391.41;4939015;29;20066;-57
2021/12/08 09:52:59;;;;;;;2.78;0.70;;;;;;;15.09;42.28;99389.03;4939634;28;20047;-58
2021/12/08 09:55:24;;;;;;;3.47;0.40;;;;;;;15.20;42.81;99387.66;4940136;29;20078;-57
2021/12/08 09:57:50;;;;;;;1.35;0.60;;;;;;;15.30;42.98;99397.09;4940067;29;20035;-57
2021/12/08 10:00:37;;;;;;;2.22;0.68;;;;;;;15.34;42.77;99390.28;4956892;29;20038;-57
2021/12/08 10:03:05;;;;;;;1.17;0.57;;;;;;;15.37;42.27;99384.50;4956758;29;20023;-57
2021/12/08 10:05:33;;;;;;;3.58;0.70;;;;;;;15.46;43.10;99388.75;4956998;29;20054;-58
2021/12/08 10:08:00;;;;;;;1.70;0.85;;;;;;;15.56;42.02;99389.25;4939667;29;20035;-58
2021/12/08 10:10:27;;;;;;;6.00;2.00;;;;;;;15.61;42.37;99386.78;4936617;29;20063;-57
2021/12/08 10:12:52;;;;;;;2.95;0.60;;;;;;;15.64;43.13;99381.00;4937327;29;20038;-57
2021/12/08 10:15:20;;;;;;;3.92;0.47;;;;;;;15.78;42.15;99375.69;4937428;28;20027;-58
2021/12/08 10:17:46;;;;;;;5.80;0.80;;;;;;;15.92;42.89;99378.25;4937601;28;20019;-57
2021/12/08 10:20:20;;;;;;;1.65;0.70;;;;;;;16.03;41.49;99372.31;4937355;29;20035;-57
2021/12/08 10:22:50;;;;;;;4.53;0.80;;;;;;;16.13;41.35;99363.84;4937696;28;20485;-58
2021/12/08 10:25:22;;;;;;;2.88;1.13;;;;;;;16.26;41.75;99382.81;4936152;29;20031;-58
2021/12/08 10:28:02;;;;;;;4.75;1.60;;;;;;;16.55;40.53;99389.81;4935967;28;20028;-58
2021/12/08 10:30:28;;;;;;;3.42;0.75;;;;;;;16.85;41.32;99400.09;4936083;29;20038;-58
2021/12/08 10:32:54;;;;;;;4.70;0.98;;;;;;;17.11;41.00;99401.19;4937163;29;20031;-58
2021/12/08 10:35:41;;;;;;;7.78;2.15;;;;;;;17.38;41.39;99408.28;4937700;29;20425;-60
2021/12/08 10:38:07;;;;;;;26.80;11.05;;;;;;;17.66;41.22;99430.63;4935377;29;20112;-60
2021/12/08 10:40:32;;;;;;;15.95;6.13;;;;;;;17.94;40.52;99428.50;4935327;29;20039;-60
2021/12/08 10:42:57;;;;;;;22.05;12.52;;;;;;;17.99;40.30;99439.53;4936833;29;20036;-60
2021/12/08 10:45:27;;;;;;;5.43;1.35;;;;;;;17.85;40.41;99432.47;4937022;29;20031;-60
2021/12/08 10:47:58;;;;;;;4.85;0.90;;;;;;;17.73;40.00;99434.13;4936454;29;20106;-60
2021/12/08 10:56:09;;;;;;;2.70;0.65;;;;;;;17.41;40.66;99451.19;4936005;29;20060;-60
2021/12/08 10:58:39;;;;;;;4.72;0.50;;;;;;;17.24;40.31;99439.09;4936675;29;20031;-61
2021/12/08 11:01:11;;;;;;;4.30;0.95;;;;;;;17.11;40.67;99434.50;4936656;29;20027;-60
2021/12/08 11:03:38;;;;;;;6.15;0.90;;;;;;;17.09;41.30;99449.25;4939869;29;20063;-60
2021/12/08 11:06:04;;;;;;;2.72;0.70;;;;;;;17.07;41.05;99454.03;4940353;29;20035;-60
2021/12/08 11:08:37;;;;;;;2.47;1.23;;;;;;;16.99;41.16;99459.63;4939684;29;20116;-60
2021/12/08 11:11:11;;;;;;;5.90;0.85;;;;;;;16.87;40.68;99452.13;4952850;29;20057;-60
2021/12/08 11:13:42;;;;;;;5.90;1.02;;;;;;;16.82;40.53;99457.31;4959325;29;20035;-60
2021/12/08 11:16:13;;;;;;;4.05;0.55;;;;;;;16.82;41.24;99454.59;4959248;29;20058;-60
2021/12/08 11:18:41;;;;;;;2.38;0.90;;;;;;;16.85;41.29;99456.91;4959239;29;20026;-60
2021/12/08 11:21:32;;;;;;;2.70;0.80;;;;;;;16.78;41.60;99460.59;4959436;29;20524;-60
2021/12/08 11:23:59;;;;;;;4.85;1.10;;;;;;;16.62;40.75;99471.78;4959516;29;20086;-60
2021/12/08 11:26:30;;;;;;;6.95;0.77;;;;;;;16.48;41.70;99468.16;4959034;29;20035;-60
2021/12/08 11:29:02;;;;;;;0.70;0.70;;;;;;;16.32;40.64;99476.59;4941861;29;20070;-60
2021/12/08 11:31:36;;;;;;;4.30;1.00;;;;;;;16.16;42.09;99476.91;4959231;29;20031;-60
2021/12/08 11:34:05;;;;;;;4.63;0.93;;;;;;;16.02;40.82;99469.75;4958851;29;20027;-61
2021/12/08 11:36:35;;;;;;;1.33;1.08;;;;;;;15.93;40.54;99477.16;4958890;29;20156;-61
2021/12/08 11:39:13;;;;;;;1.60;0.98;;;;;;;15.84;41.42;99472.09;4958837;29;20034;-61
2021/12/08 11:41:40;;;;;;;6.03;1.15;;;;;;;15.78;41.63;99478.28;4941701;29;20051;-61
2021/12/08 11:44:11;;;;;;;8.55;0.93;;;;;;;15.70;41.03;99481.97;4958627;29;20110;-61
2021/12/08 11:46:47;;;;;;;1.38;0.57;;;;;;;15.65;42.25;99487.13;4958622;29;20027;-61
2021/12/08 11:49:13;;;;;;;3.10;1.20;;;;;;;15.62;42.03;99501.00;4958583;29;20024;-61
2021/12/08 11:51:44;;;;;;;4.57;0.80;;;;;;;15.58;41.48;99500.53;4958625;29;20035;-61
2021/12/08 11:54:25;;;;;;;2.97;0.68;;;;;;;15.57;42.21;99506.16;4958773;29;20066;-62
2021/12/08 11:56:50;;;;;;;1.38;0.52;;;;;;;15.52;41.56;99492.41;4958629;29;20027;-61
2021/12/08 11:59:16;;;;;;;2.55;1.10;;;;;;;15.42;41.86;99499.94;4958311;29;20035;-61
2021/12/08 12:01:42;;;;;;;2.92;1.00;;;;;;;15.37;40.92;99508.63;4941933;29;20427;-61
2021/12/08 12:04:11;;;;;;;4.97;0.98;;;;;;;15.38;41.65;99504.06;4941676;29;20027;-61
2021/12/08 12:06:37;;;;;;;4.53;0.73;;;;;;;15.35;42.44;99501.75;4958655;29;20031;-61
2021/12/08 12:09:05;;;;;;;13.85;1.13;;;;;;;15.30;42.46;99505.00;4941051;29;20493;-60
2021/12/08 12:11:32;;;;;;;3.00;1.05;;;;;;;15.24;42.12;99508.50;4958020;29;20429;-61
2021/12/08 12:13:59;;;;;;;4.63;0.77;;;;;;;15.25;40.96;99520.94;4957973;28;20070;-61
2021/12/08 12:16:25;;;;;;;3.17;1.02;;;;;;;15.25;42.04;99526.34;4958366;29;20107;-61
2021/12/08 12:18:55;;;;;;;3.55;0.93;;;;;;;15.17;41.70;99518.38;4957539;29;20058;-61
2021/12/08 12:21:57;;;;;;;6.35;0.63;;;;;;;15.14;41.86;99529.53;4957756;29;20107;-61
2021/12/08 12:25:20;;;;;;;0.82;0.52;;;;;;;15.06;42.06;99532.34;4957692;29;20073;-61
2021/12/08 12:28:00;;;;;;;5.32;1.02;;;;;;;15.01;42.54;99537.47;4915490;29;20039;-61
2021/12/08 12:30:44;;;;;;;4.15;1.05;;;;;;;14.99;41.96;99534.16;4941025;29;20026;-61
2021/12/08 12:33:20;;;;;;;2.08;0.95;;;;;;;14.95;41.28;99535.53;4957917;29;20326;-60
2021/12/08 12:35:56;;;;;;;4.63;1.08;;;;;;;14.92;41.92;99549.38;4940777;29;20432;-61
2021/12/08 12:38:33;;;;;;;8.68;1.48;;;;;;;14.90;42.00;99552.28;4957989;29;20055;-61